Time;durP1;ratioP1;P1;durP2;ratioP2;P2;SDS_P1;SDS_P2;PMS_P1;PMS_P2;Temp;Humidity;BMP_temperature;BMP_pressure;BME280_temperature;BME280_humidity;BME280_pressure;Samples;Min_cycle;Max_cycle;Signal;HPM_P1;HPM_P2
2021/10/20 00:02:10;;;;;;;4.28;3.67;;;;;;;;;;5102672;28;20035;-69
2021/10/20 00:04:36;;;;;;;3.58;2.78;;;;;;;;;;5105575;28;20040;-69
2021/10/20 00:07:02;;;;;;;4.20;3.40;;;;;;;;;;5109038;28;20401;-69
2021/10/20 00:09:27;;;;;;;3.78;2.95;;;;;;;;;;5104712;28;20035;-69
2021/10/20 00:11:53;;;;;;;4.10;2.65;;;;;;;;;;5103084;28;20068;-69
2021/10/20 00:14:18;;;;;;;3.50;3.13;;;;;;;;;;5107849;28;20102;-69
2021/10/20 00:16:43;;;;;;;3.15;2.45;;;;;;;;;;5107113;28;20028;-70
2021/10/20 00:19:10;;;;;;;12.95;3.22;;;;;;;;;;5092098;28;20032;-72
2021/10/20 00:21:35;;;;;;;3.88;3.05;;;;;;;;;;5104653;28;20508;-70
2021/10/20 00:24:01;;;;;;;3.80;2.70;;;;;;;;;;5107470;28;20063;-70
2021/10/20 00:26:27;;;;;;;3.95;3.40;;;;;;;;;;5105206;28;20361;-70
2021/10/20 00:28:53;;;;;;;3.35;2.85;;;;;;;;;;5105511;28;20471;-69
2021/10/20 00:31:18;;;;;;;5.60;3.42;;;;;;;;;;5106481;28;20036;-70
2021/10/20 00:33:44;;;;;;;3.58;2.85;;;;;;;;;;5103322;28;20027;-69
2021/10/20 00:36:10;;;;;;;3.80;2.92;;;;;;;;;;5102125;28;20035;-70
2021/10/20 00:38:35;;;;;;;9.60;3.05;;;;;;;;;;5090969;28;20110;-70
2021/10/20 00:41:01;;;;;;;5.03;3.22;;;;;;;;;;5101260;28;20121;-69
2021/10/20 00:43:26;;;;;;;3.92;3.30;;;;;;;;;;5102956;28;20038;-70
2021/10/20 00:45:52;;;;;;;3.80;2.83;;;;;;;;;;5104439;28;20181;-70
2021/10/20 00:48:19;;;;;;;7.03;3.80;;;;;;;;;;5104789;28;20096;-70
2021/10/20 00:50:44;;;;;;;9.52;3.35;;;;;;;;;;5105150;28;20106;-69
2021/10/20 00:53:10;;;;;;;4.05;3.30;;;;;;;;;;5104237;28;20393;-70
2021/10/20 00:55:36;;;;;;;3.33;2.90;;;;;;;;;;5103923;28;20031;-69
2021/10/20 00:58:02;;;;;;;3.95;2.60;;;;;;;;;;5105913;28;20028;-69
2021/10/20 01:00:27;;;;;;;3.88;3.05;;;;;;;;;;5105353;28;20173;-69
2021/10/20 01:02:54;;;;;;;4.57;3.15;;;;;;;;;;5103622;28;20126;-69
2021/10/20 01:05:19;;;;;;;3.40;2.85;;;;;;;;;;5088582;28;20023;-70
2021/10/20 01:07:45;;;;;;;4.75;3.28;;;;;;;;;;5104063;28;20039;-70
2021/10/20 01:10:11;;;;;;;4.20;3.28;;;;;;;;;;5101668;28;20028;-70
2021/10/20 01:12:38;;;;;;;3.10;2.60;;;;;;;;;;5105004;28;20043;-70
2021/10/20 01:15:12;;;;;;;5.03;3.95;;;;;;;;;;5103923;28;20028;-70
2021/10/20 01:17:37;;;;;;;4.47;3.42;;;;;;;;;;5102552;28;20040;-70
2021/10/20 01:20:05;;;;;;;4.13;3.28;;;;;;;;;;5088041;28;20050;-71
2021/10/20 01:22:31;;;;;;;3.60;2.72;;;;;;;;;;5104592;28;20036;-70
2021/10/20 01:24:58;;;;;;;3.63;2.95;;;;;;;;;;5103442;28;20043;-70
2021/10/20 01:27:24;;;;;;;4.07;3.03;;;;;;;;;;5101026;28;20032;-70
2021/10/20 01:29:49;;;;;;;3.45;2.75;;;;;;;;;;5103934;28;20116;-70
2021/10/20 01:32:15;;;;;;;3.20;2.85;;;;;;;;;;5105117;28;20055;-70
2021/10/20 01:34:40;;;;;;;3.47;2.58;;;;;;;;;;5103169;28;20031;-70
2021/10/20 01:37:06;;;;;;;3.38;2.65;;;;;;;;;;5105681;28;20361;-70
2021/10/20 01:39:34;;;;;;;4.32;3.58;;;;;;;;;;5107149;28;20352;-70
2021/10/20 01:41:59;;;;;;;3.58;2.95;;;;;;;;;;5103002;28;20038;-70
2021/10/20 01:44:25;;;;;;;4.65;3.30;;;;;;;;;;5101523;28;20647;-70
2021/10/20 01:46:51;;;;;;;3.10;2.17;;;;;;;;;;5105077;28;20032;-70
2021/10/20 01:49:16;;;;;;;2.92;2.28;;;;;;;;;;5105397;28;20032;-70
2021/10/20 01:51:42;;;;;;;3.33;2.50;;;;;;;;;;5103013;28;20046;-71
2021/10/20 01:54:08;;;;;;;4.22;3.03;;;;;;;;;;5103377;28;20358;-71
2021/10/20 01:56:34;;;;;;;3.20;2.20;;;;;;;;;;5102857;28;20644;-71
2021/10/20 01:59:00;;;;;;;3.10;2.55;;;;;;;;;;5103615;28;20109;-71
2021/10/20 02:01:26;;;;;;;3.70;2.85;;;;;;;;;;5102824;28;20107;-70
2021/10/20 02:03:51;;;;;;;3.55;2.80;;;;;;;;;;5103882;28;20031;-71
2021/10/20 02:06:19;;;;;;;3.10;2.40;;;;;;;;;;5102375;28;20035;-70
2021/10/20 02:08:45;;;;;;;3.42;2.42;;;;;;;;;;5087698;28;20078;-71
2021/10/20 02:11:12;;;;;;;3.58;2.55;;;;;;;;;;5088212;28;20035;-71
2021/10/20 02:13:39;;;;;;;4.07;2.92;;;;;;;;;;5100915;28;20058;-70
2021/10/20 02:16:05;;;;;;;3.90;2.70;;;;;;;;;;5104217;28;20035;-71
2021/10/20 02:18:30;;;;;;;3.28;2.53;;;;;;;;;;5106036;28;20042;-71
2021/10/20 02:20:56;;;;;;;3.70;2.38;;;;;;;;;;5101358;28;20036;-71
2021/10/20 02:23:22;;;;;;;3.97;2.90;;;;;;;;;;5109359;28;20027;-71
2021/10/20 02:25:48;;;;;;;5.18;2.53;;;;;;;;;;5106841;28;20474;-71
2021/10/20 02:28:13;;;;;;;4.68;3.17;;;;;;;;;;5104935;28;20480;-70
2021/10/20 02:30:39;;;;;;;2.78;2.45;;;;;;;;;;5105464;28;20016;-71
2021/10/20 02:33:06;;;;;;;3.55;2.60;;;;;;;;;;5093847;28;20156;-70
2021/10/20 02:35:31;;;;;;;4.25;2.90;;;;;;;;;;5107279;28;20088;-70
2021/10/20 02:37:57;;;;;;;3.55;2.58;;;;;;;;;;5109267;28;20084;-71
2021/10/20 02:40:23;;;;;;;4.38;2.97;;;;;;;;;;5089689;28;20144;-69
2021/10/20 02:42:49;;;;;;;14.90;3.13;;;;;;;;;;5102073;28;20067;-70
2021/10/20 02:45:15;;;;;;;4.60;2.67;;;;;;;;;;5102085;27;20129;-70
2021/10/20 02:47:42;;;;;;;3.90;2.90;;;;;;;;;;5102740;28;20064;-70
2021/10/20 02:50:08;;;;;;;3.30;2.70;;;;;;;;;;5101370;28;20524;-70
2021/10/20 02:52:34;;;;;;;3.05;2.40;;;;;;;;;;5103060;28;20036;-70
2021/10/20 02:55:00;;;;;;;3.22;2.65;;;;;;;;;;5101276;28;20495;-70
2021/10/20 02:57:25;;;;;;;4.05;2.55;;;;;;;;;;5103417;28;20028;-70
2021/10/20 02:59:52;;;;;;;3.50;2.63;;;;;;;;;;5105114;28;20031;-71
2021/10/20 03:02:18;;;;;;;3.33;2.30;;;;;;;;;;5104358;28;20081;-70
2021/10/20 03:04:44;;;;;;;3.28;2.65;;;;;;;;;;5106985;28;20059;-70
2021/10/20 03:07:09;;;;;;;3.88;2.75;;;;;;;;;;5104869;28;20032;-70
2021/10/20 03:09:34;;;;;;;3.88;3.47;;;;;;;;;;5102671;28;20024;-70
2021/10/20 03:12:00;;;;;;;2.92;2.25;;;;;;;;;;5103579;28;20031;-70
2021/10/20 03:14:25;;;;;;;4.45;2.97;;;;;;;;;;5102758;28;20290;-70
2021/10/20 03:16:51;;;;;;;4.15;3.03;;;;;;;;;;5108108;28;20046;-70
2021/10/20 03:19:16;;;;;;;3.45;3.10;;;;;;;;;;5107115;28;20092;-70
2021/10/20 03:21:41;;;;;;;6.80;3.70;;;;;;;;;;5106084;28;20449;-70
2021/10/20 03:24:07;;;;;;;3.40;2.40;;;;;;;;;;5105598;28;20031;-70
2021/10/20 03:26:33;;;;;;;5.80;3.40;;;;;;;;;;5087220;28;20122;-71
2021/10/20 03:28:59;;;;;;;3.47;2.70;;;;;;;;;;5105961;28;20460;-70
2021/10/20 03:31:24;;;;;;;4.57;3.33;;;;;;;;;;5104227;28;20118;-70
2021/10/20 03:33:50;;;;;;;5.70;3.17;;;;;;;;;;5106616;28;20696;-70
2021/10/20 03:36:15;;;;;;;3.47;2.63;;;;;;;;;;5106265;28;20123;-71
2021/10/20 03:38:41;;;;;;;5.13;3.42;;;;;;;;;;5106971;28;20069;-70
2021/10/20 03:41:06;;;;;;;4.07;3.17;;;;;;;;;;5104648;28;20082;-71
2021/10/20 03:43:32;;;;;;;4.05;2.50;;;;;;;;;;5107612;28;20036;-71
2021/10/20 03:45:57;;;;;;;3.28;2.55;;;;;;;;;;5104290;28;20039;-70
2021/10/20 03:48:22;;;;;;;4.30;3.42;;;;;;;;;;5106160;28;20071;-70
2021/10/20 03:50:48;;;;;;;3.30;2.33;;;;;;;;;;5101869;28;20039;-69
2021/10/20 03:53:13;;;;;;;7.55;3.13;;;;;;;;;;5103571;28;20607;-69
2021/10/20 03:55:39;;;;;;;4.25;3.00;;;;;;;;;;5102404;28;20092;-69
2021/10/20 03:58:04;;;;;;;3.70;3.00;;;;;;;;;;5102597;28;20047;-70
2021/10/20 04:00:30;;;;;;;4.15;2.90;;;;;;;;;;5091589;28;20031;-70
2021/10/20 04:02:55;;;;;;;3.63;3.08;;;;;;;;;;5101978;28;20019;-70
2021/10/20 04:05:21;;;;;;;3.95;3.10;;;;;;;;;;5106501;28;20039;-70
2021/10/20 04:07:48;;;;;;;4.75;3.20;;;;;;;;;;5101914;28;20059;-70
2021/10/20 04:10:17;;;;;;;2.70;2.00;;;;;;;;;;5100643;28;20116;-70
2021/10/20 04:12:44;;;;;;;3.28;2.70;;;;;;;;;;5107896;28;20032;-70
2021/10/20 04:15:10;;;;;;;4.38;3.25;;;;;;;;;;5104452;28;20024;-70
2021/10/20 04:17:38;;;;;;;3.50;2.42;;;;;;;;;;5102183;28;20096;-70
2021/10/20 04:20:14;;;;;;;7.50;3.35;;;;;;;;;;5105807;28;20035;-70
2021/10/20 04:22:41;;;;;;;3.88;2.95;;;;;;;;;;5104348;28;20046;-70
2021/10/20 04:25:07;;;;;;;3.92;2.67;;;;;;;;;;5102029;28;20028;-70
2021/10/20 04:27:33;;;;;;;3.72;2.97;;;;;;;;;;5103157;28;20942;-70
2021/10/20 04:29:59;;;;;;;4.10;3.25;;;;;;;;;;5103472;28;20032;-70
2021/10/20 04:32:28;;;;;;;4.13;3.33;;;;;;;;;;5106616;28;20123;-70
2021/10/20 04:34:54;;;;;;;4.50;3.45;;;;;;;;;;5102577;28;20449;-70
2021/10/20 04:37:25;;;;;;;3.33;2.58;;;;;;;;;;5102130;28;20043;-70
2021/10/20 04:39:56;;;;;;;;;;;;;;;;;;5103735;28;20027;-70
2021/10/20 04:42:22;;;;;;;;;;;;;;;;;;5102300;28;19990;-70
2021/10/20 04:44:48;;;;;;;3.05;2.47;;;;;;;;;;5103991;28;20018;-70
2021/10/20 04:47:14;;;;;;;4.30;2.67;;;;;;;;;;5105179;28;20108;-70
2021/10/20 04:49:39;;;;;;;3.10;2.40;;;;;;;;;;5102100;28;20046;-70
2021/10/20 04:52:05;;;;;;;8.07;4.20;;;;;;;;;;5104054;28;20345;-70
2021/10/20 04:54:30;;;;;;;4.68;3.85;;;;;;;;;;5104260;28;20476;-70
2021/10/20 04:56:55;;;;;;;4.38;2.75;;;;;;;;;;5102467;28;20040;-70
2021/10/20 04:59:21;;;;;;;4.95;3.28;;;;;;;;;;5104359;28;20031;-70
2021/10/20 05:01:46;;;;;;;3.42;2.65;;;;;;;;;;5103788;28;20020;-70
2021/10/20 05:04:12;;;;;;;3.15;2.47;;;;;;;;;;5100717;28;20255;-70
2021/10/20 05:06:37;;;;;;;12.50;5.40;;;;;;;;;;5104268;28;20035;-70
2021/10/20 05:09:03;;;;;;;9.90;4.55;;;;;;;;;;5105921;28;20330;-70
2021/10/20 05:11:28;;;;;;;7.25;5.93;;;;;;;;;;5092225;28;20071;-69
2021/10/20 05:13:54;;;;;;;6.60;3.30;;;;;;;;;;5091410;28;20074;-69
2021/10/20 05:16:19;;;;;;;5.20;3.90;;;;;;;;;;5104259;28;20027;-69
2021/10/20 05:18:45;;;;;;;5.05;3.40;;;;;;;;;;5104871;28;20082;-69
2021/10/20 05:21:10;;;;;;;4.07;3.38;;;;;;;;;;5105812;28;20651;-70
2021/10/20 05:23:35;;;;;;;4.13;3.38;;;;;;;;;;5104188;28;20036;-70
2021/10/20 05:26:01;;;;;;;5.68;3.17;;;;;;;;;;5104359;28;20028;-70
2021/10/20 05:28:26;;;;;;;3.78;3.10;;;;;;;;;;5105354;28;20028;-70
2021/10/20 05:30:52;;;;;;;4.97;3.47;;;;;;;;;;5107038;28;20036;-70
2021/10/20 05:33:17;;;;;;;3.25;2.95;;;;;;;;;;5103015;28;20054;-70
2021/10/20 05:35:43;;;;;;;4.55;3.28;;;;;;;;;;5104355;28;20053;-71
2021/10/20 05:38:08;;;;;;;4.25;3.40;;;;;;;;;;5101464;28;20043;-70
2021/10/20 05:40:34;;;;;;;3.67;3.28;;;;;;;;;;5103866;28;20027;-70
2021/10/20 05:43:01;;;;;;;3.45;2.72;;;;;;;;;;5106224;28;20028;-70
2021/10/20 05:45:26;;;;;;;5.80;3.80;;;;;;;;;;5105941;28;20032;-71
2021/10/20 05:47:52;;;;;;;3.72;2.92;;;;;;;;;;5104863;28;20089;-71
2021/10/20 05:50:17;;;;;;;4.90;3.75;;;;;;;;;;5106133;28;20051;-71
2021/10/20 05:52:43;;;;;;;4.00;3.45;;;;;;;;;;5103398;28;20056;-71
2021/10/20 05:55:09;;;;;;;3.92;3.10;;;;;;;;;;5104744;28;20032;-70
2021/10/20 05:57:39;;;;;;;4.10;2.75;;;;;;;;;;5108395;28;20059;-71
2021/10/20 06:00:07;;;;;;;3.97;3.08;;;;;;;;;;5088884;28;20031;-70
2021/10/20 06:02:33;;;;;;;17.27;3.55;;;;;;;;;;5105424;28;20028;-70
2021/10/20 06:04:58;;;;;;;4.00;2.75;;;;;;;;;;5107914;28;20038;-70
2021/10/20 06:07:24;;;;;;;3.50;2.50;;;;;;;;;;5105353;27;20028;-70
2021/10/20 06:09:49;;;;;;;3.60;3.08;;;;;;;;;;5104325;28;20212;-70
2021/10/20 06:12:14;;;;;;;3.67;2.80;;;;;;;;;;5107231;28;20031;-71
2021/10/20 06:14:40;;;;;;;4.13;2.92;;;;;;;;;;5107560;28;20565;-71
2021/10/20 06:17:05;;;;;;;8.55;3.60;;;;;;;;;;5103698;27;20097;-72
2021/10/20 06:19:31;;;;;;;4.45;2.67;;;;;;;;;;5105946;28;20119;-71
2021/10/20 06:21:57;;;;;;;3.40;2.78;;;;;;;;;;5105732;28;20031;-71
2021/10/20 06:24:23;;;;;;;4.80;3.80;;;;;;;;;;5104918;28;20034;-71
2021/10/20 06:26:48;;;;;;;4.57;3.30;;;;;;;;;;5093923;28;20032;-71
2021/10/20 06:29:14;;;;;;;5.13;2.75;;;;;;;;;;5107934;28;20467;-71
2021/10/20 06:35:02;;;;;;;3.30;2.58;;;;;;;;;;5096310;28;20114;-71
2021/10/20 06:37:29;;;;;;;3.88;3.30;;;;;;;;;;5105612;27;20095;-70
2021/10/20 06:39:55;;;;;;;3.55;3.00;;;;;;;;;;5090131;28;20678;-71
2021/10/20 06:42:20;;;;;;;3.72;2.88;;;;;;;;;;5105425;28;20110;-70
2021/10/20 06:44:45;;;;;;;3.40;2.95;;;;;;;;;;5105971;27;20038;-71
2021/10/20 06:47:11;;;;;;;3.78;3.08;;;;;;;;;;5104863;28;20122;-71
2021/10/20 06:49:36;;;;;;;5.07;3.33;;;;;;;;;;5104871;28;20384;-71
2021/10/20 06:52:02;;;;;;;3.53;3.00;;;;;;;;;;5104099;28;20110;-71
2021/10/20 06:54:27;;;;;;;4.97;2.92;;;;;;;;;;5105533;27;20178;-70
2021/10/20 06:56:54;;;;;;;3.60;2.97;;;;;;;;;;5104147;28;20026;-70
2021/10/20 06:59:20;;;;;;;4.00;3.20;;;;;;;;;;5104956;28;20053;-70
2021/10/20 07:01:45;;;;;;;4.88;3.38;;;;;;;;;;5089615;28;20028;-70
2021/10/20 07:04:11;;;;;;;3.28;2.53;;;;;;;;;;5104223;28;20862;-71
2021/10/20 07:06:38;;;;;;;4.22;2.88;;;;;;;;;;5103593;27;20042;-71
2021/10/20 07:09:07;;;;;;;4.30;2.65;;;;;;;;;;5084094;27;20059;-71
2021/10/20 07:11:33;;;;;;;5.85;3.22;;;;;;;;;;5085987;28;20035;-71
2021/10/20 07:13:59;;;;;;;3.22;2.72;;;;;;;;;;5087640;28;21553;-70
2021/10/20 07:16:24;;;;;;;3.47;2.72;;;;;;;;;;5104042;27;20027;-70
2021/10/20 07:18:50;;;;;;;3.28;2.83;;;;;;;;;;5103510;27;20032;-71
2021/10/20 07:21:16;;;;;;;3.13;2.28;;;;;;;;;;5102896;27;21564;-71
2021/10/20 07:23:42;;;;;;;3.72;3.03;;;;;;;;;;5100372;27;20035;-71
2021/10/20 07:26:08;;;;;;;3.75;2.72;;;;;;;;;;5082273;28;20080;-70
2021/10/20 07:28:33;;;;;;;4.93;3.25;;;;;;;;;;5088154;28;20031;-70
2021/10/20 07:30:59;;;;;;;3.72;2.95;;;;;;;;;;5102832;28;20039;-70
2021/10/20 07:33:24;;;;;;;3.45;2.85;;;;;;;;;;5104424;28;20047;-70
2021/10/20 07:35:50;;;;;;;3.58;2.60;;;;;;;;;;5100717;28;20588;-70
2021/10/20 07:38:16;;;;;;;3.92;2.40;;;;;;;;;;5105025;28;20031;-70
2021/10/20 07:40:41;;;;;;;2.95;2.33;;;;;;;;;;5104615;28;20095;-70
2021/10/20 07:43:06;;;;;;;3.78;2.83;;;;;;;;;;5104931;28;20115;-70
2021/10/20 07:45:32;;;;;;;4.35;2.80;;;;;;;;;;5105084;28;20124;-70
2021/10/20 07:47:58;;;;;;;3.22;2.53;;;;;;;;;;5088748;28;20607;-70
2021/10/20 07:50:23;;;;;;;3.72;3.17;;;;;;;;;;5105272;28;20028;-70
2021/10/20 07:52:50;;;;;;;4.75;2.83;;;;;;;;;;5102490;28;20036;-70
2021/10/20 07:55:23;;;;;;;4.65;3.20;;;;;;;;;;5102212;28;20468;-70
2021/10/20 07:57:49;;;;;;;3.30;2.53;;;;;;;;;;5100800;28;20173;-70
2021/10/20 08:00:15;;;;;;;4.72;3.33;;;;;;;;;;5100762;28;20027;-70
2021/10/20 08:02:42;;;;;;;3.25;2.63;;;;;;;;;;5099539;28;20030;-70
2021/10/20 08:05:11;;;;;;;5.68;3.50;;;;;;;;;;5104996;28;20032;-70
2021/10/20 08:07:43;;;;;;;4.10;3.42;;;;;;;;;;5100781;28;20027;-70
2021/10/20 08:10:09;;;;;;;3.38;2.97;;;;;;;;;;5102188;28;20028;-70
2021/10/20 08:12:34;;;;;;;3.38;3.08;;;;;;;;;;5102782;28;20028;-70
2021/10/20 08:15:02;;;;;;;4.15;3.10;;;;;;;;;;5103914;28;20362;-70
2021/10/20 08:17:27;;;;;;;2.85;2.50;;;;;;;;;;5100720;28;20097;-70
2021/10/20 08:19:53;;;;;;;3.10;2.70;;;;;;;;;;5105101;28;20461;-70
2021/10/20 08:22:18;;;;;;;3.28;2.78;;;;;;;;;;5100977;28;20453;-70
2021/10/20 08:24:44;;;;;;;6.40;3.42;;;;;;;;;;5105608;28;20869;-70
2021/10/20 08:27:09;;;;;;;3.13;2.40;;;;;;;;;;5106031;28;20823;-70
2021/10/20 08:29:35;;;;;;;3.78;3.00;;;;;;;;;;5106218;28;20036;-70
2021/10/20 08:32:02;;;;;;;3.45;2.60;;;;;;;;;;5085916;28;20049;-70
2021/10/20 08:34:27;;;;;;;3.75;2.97;;;;;;;;;;5102343;28;20532;-70
2021/10/20 08:36:53;;;;;;;12.50;3.58;;;;;;;;;;5103054;28;20118;-69
2021/10/20 08:39:18;;;;;;;3.80;2.92;;;;;;;;;;5101834;28;20055;-70
2021/10/20 08:41:46;;;;;;;3.35;2.58;;;;;;;;;;5104730;28;20353;-70
2021/10/20 08:44:12;;;;;;;3.13;2.33;;;;;;;;;;5103317;28;20533;-70
2021/10/20 08:46:38;;;;;;;5.35;3.60;;;;;;;;;;5101848;28;20107;-70
2021/10/20 08:49:04;;;;;;;4.35;3.10;;;;;;;;;;5103617;28;20519;-70
2021/10/20 08:51:31;;;;;;;5.35;3.13;;;;;;;;;;5101532;28;20039;-70
2021/10/20 08:53:57;;;;;;;4.10;3.40;;;;;;;;;;5103623;28;20063;-70
2021/10/20 08:56:23;;;;;;;3.60;2.75;;;;;;;;;;5104177;28;20020;-70
2021/10/20 08:58:48;;;;;;;3.55;2.85;;;;;;;;;;5106748;28;20039;-70
2021/10/20 09:01:15;;;;;;;3.03;2.42;;;;;;;;;;5098338;28;20557;-70
2021/10/20 09:03:41;;;;;;;3.58;2.83;;;;;;;;;;5105699;28;20028;-70
2021/10/20 09:06:06;;;;;;;4.60;3.17;;;;;;;;;;5090416;28;20467;-70
2021/10/20 09:08:45;;;;;;;3.55;2.63;;;;;;;;;;5105119;28;20111;-70
2021/10/20 09:11:33;;;;;;;3.80;2.97;;;;;;;;;;5103352;28;20055;-70
2021/10/20 09:14:13;;;;;;;3.05;2.40;;;;;;;;;;5103173;28;20032;-70
2021/10/20 09:16:41;;;;;;;4.68;3.75;;;;;;;;;;5102755;28;20062;-70
2021/10/20 09:19:21;;;;;;;3.42;3.00;;;;;;;;;;5101940;28;20037;-70
2021/10/20 09:21:49;;;;;;;3.33;2.80;;;;;;;;;;5106104;28;20114;-70
2021/10/20 09:24:15;;;;;;;4.43;3.00;;;;;;;;;;5106967;28;20035;-70
2021/10/20 09:26:40;;;;;;;4.15;3.00;;;;;;;;;;5100351;28;20046;-70
2021/10/20 09:29:23;;;;;;;4.22;3.42;;;;;;;;;;5109226;28;20043;-70
2021/10/20 09:31:50;;;;;;;3.78;2.75;;;;;;;;;;5110246;28;20080;-70
2021/10/20 09:34:16;;;;;;;3.63;3.08;;;;;;;;;;5092672;28;20035;-70
2021/10/20 09:36:42;;;;;;;3.10;2.50;;;;;;;;;;5106304;28;20125;-70
2021/10/20 09:39:11;;;;;;;4.50;3.28;;;;;;;;;;5106982;28;20028;-70
2021/10/20 09:41:37;;;;;;;5.13;3.40;;;;;;;;;;5105184;28;20015;-71
2021/10/20 09:44:09;;;;;;;4.15;3.08;;;;;;;;;;5108141;28;20065;-71
2021/10/20 09:46:42;;;;;;;3.38;3.03;;;;;;;;;;5108757;28;20532;-71
2021/10/20 09:49:15;;;;;;;4.07;3.45;;;;;;;;;;5106126;28;20035;-71
2021/10/20 09:51:41;;;;;;;3.10;2.70;;;;;;;;;;5107999;28;20050;-71
2021/10/20 09:54:28;;;;;;;5.38;3.15;;;;;;;;;;5105611;28;20115;-70
2021/10/20 09:57:01;;;;;;;3.40;3.08;;;;;;;;;;5104604;27;20039;-69
2021/10/20 09:59:28;;;;;;;4.03;3.55;;;;;;;;;;5109342;27;20035;-69
2021/10/20 10:01:53;;;;;;;3.25;2.60;;;;;;;;;;5105700;27;20229;-70
2021/10/20 10:04:19;;;;;;;8.23;3.63;;;;;;;;;;5107192;27;20036;-70
2021/10/20 10:06:47;;;;;;;4.45;3.45;;;;;;;;;;5108772;27;20042;-70
2021/10/20 10:09:13;;;;;;;3.80;3.40;;;;;;;;;;5110389;27;20023;-69
2021/10/20 10:11:49;;;;;;;4.28;3.03;;;;;;;;;;5091974;28;20069;-69
2021/10/20 10:14:21;;;;;;;3.20;2.85;;;;;;;;;;5103946;27;20038;-69
2021/10/20 10:16:53;;;;;;;4.22;3.13;;;;;;;;;;5105478;27;20036;-69
2021/10/20 10:19:22;;;;;;;4.90;4.40;;;;;;;;;;5105588;27;20099;-70
2021/10/20 10:21:47;;;;;;;3.10;2.72;;;;;;;;;;5107931;27;20483;-69
2021/10/20 10:24:16;;;;;;;3.83;3.15;;;;;;;;;;5104681;27;20061;-69
2021/10/20 10:27:03;;;;;;;4.20;3.53;;;;;;;;;;5093600;27;20039;-69
2021/10/20 10:29:30;;;;;;;3.40;2.72;;;;;;;;;;5106288;27;20027;-69
2021/10/20 10:32:01;;;;;;;4.18;3.03;;;;;;;;;;5106942;28;20130;-69
2021/10/20 10:34:34;;;;;;;3.70;3.22;;;;;;;;;;5108046;28;20036;-69
2021/10/20 10:37:00;;;;;;;5.20;2.90;;;;;;;;;;5107789;28;20053;-70
2021/10/20 10:39:30;;;;;;;3.22;2.72;;;;;;;;;;5104959;28;20032;-70
2021/10/20 10:41:59;;;;;;;4.47;3.37;;;;;;;;;;5106248;28;20035;-69
2021/10/20 10:44:47;;;;;;;2.83;2.30;;;;;;;;;;5106434;28;20042;-69
2021/10/20 10:47:20;;;;;;;3.25;2.60;;;;;;;;;;5106292;28;20030;-69
2021/10/20 10:49:56;;;;;;;2.92;2.38;;;;;;;;;;5106935;28;20411;-69
2021/10/20 10:52:34;;;;;;;4.00;2.88;;;;;;;;;;5091543;28;20633;-69
2021/10/20 10:55:06;;;;;;;4.07;3.28;;;;;;;;;;5090366;28;20024;-70
2021/10/20 10:57:48;;;;;;;3.95;3.33;;;;;;;;;;5106334;28;20953;-69
2021/10/20 11:00:19;;;;;;;3.47;2.60;;;;;;;;;;5103844;28;20044;-69
2021/10/20 11:02:52;;;;;;;4.25;3.13;;;;;;;;;;5105692;28;20125;-69
2021/10/20 11:05:30;;;;;;;3.85;2.97;;;;;;;;;;5105784;28;20439;-69
2021/10/20 11:07:59;;;;;;;13.80;3.70;;;;;;;;;;5106077;28;20396;-69
2021/10/20 11:10:25;;;;;;;3.90;3.13;;;;;;;;;;5102544;28;20530;-69
2021/10/20 11:12:52;;;;;;;4.07;3.08;;;;;;;;;;5105983;27;20058;-69
2021/10/20 11:15:19;;;;;;;3.67;2.78;;;;;;;;;;5107575;27;20024;-69
2021/10/20 11:17:45;;;;;;;4.15;3.20;;;;;;;;;;5105346;27;20472;-69
2021/10/20 11:20:16;;;;;;;6.30;3.22;;;;;;;;;;5104679;28;20047;-69
2021/10/20 11:22:56;;;;;;;3.88;2.90;;;;;;;;;;5104647;28;20042;-70
2021/10/20 11:25:23;;;;;;;3.35;2.83;;;;;;;;;;5106662;28;20027;-69
2021/10/20 11:27:58;;;;;;;3.75;2.88;;;;;;;;;;5104779;28;20769;-69
2021/10/20 11:30:30;;;;;;;3.80;2.72;;;;;;;;;;5105228;28;20031;-69
2021/10/20 11:32:57;;;;;;;3.22;2.60;;;;;;;;;;5106202;28;20055;-69
2021/10/20 11:35:27;;;;;;;3.70;2.95;;;;;;;;;;5102530;28;20028;-69
2021/10/20 11:37:56;;;;;;;3.33;2.90;;;;;;;;;;5103410;28;20047;-69
2021/10/20 11:40:22;;;;;;;3.53;2.80;;;;;;;;;;5088250;28;20100;-69
2021/10/20 11:42:48;;;;;;;3.85;3.45;;;;;;;;;;5101151;28;20553;-68
2021/10/20 11:45:14;;;;;;;3.55;3.00;;;;;;;;;;5102057;28;20120;-68
2021/10/20 11:47:41;;;;;;;3.30;2.67;;;;;;;;;;5103003;28;20057;-69
2021/10/20 11:50:11;;;;;;;3.90;3.08;;;;;;;;;;5103380;28;20036;-69
2021/10/20 11:52:37;;;;;;;;;;;;;;;;;;5105078;28;20027;-69
2021/10/20 11:55:04;;;;;;;3.45;2.92;;;;;;;;;;5103845;28;19908;-69
2021/10/20 11:57:30;;;;;;;3.90;3.50;;;;;;;;;;5103983;27;20035;-68
2021/10/20 11:59:56;;;;;;;4.78;2.72;;;;;;;;;;5087143;27;20032;-69
2021/10/20 12:02:21;;;;;;;3.70;3.33;;;;;;;;;;5102895;28;20051;-69
2021/10/20 12:04:48;;;;;;;4.22;3.72;;;;;;;;;;5103169;28;20032;-69
2021/10/20 12:07:16;;;;;;;5.35;3.92;;;;;;;;;;5106291;28;20042;-69
2021/10/20 12:09:43;;;;;;;5.47;2.90;;;;;;;;;;5103201;28;20050;-69
2021/10/20 12:12:11;;;;;;;3.45;2.90;;;;;;;;;;5102348;28;20058;-69
2021/10/20 12:14:45;;;;;;;4.25;3.22;;;;;;;;;;5103861;28;20100;-69
2021/10/20 12:17:13;;;;;;;3.40;3.05;;;;;;;;;;5101506;28;20546;-69
2021/10/20 12:19:41;;;;;;;3.40;2.65;;;;;;;;;;5099456;28;20461;-69
2021/10/20 12:22:16;;;;;;;3.58;2.92;;;;;;;;;;5101751;28;20480;-69
2021/10/20 12:24:48;;;;;;;3.17;2.67;;;;;;;;;;5103211;28;20046;-69
2021/10/20 12:27:15;;;;;;;3.85;3.40;;;;;;;;;;5101216;28;20368;-69
2021/10/20 12:29:51;;;;;;;3.35;2.88;;;;;;;;;;5102769;28;20035;-70
2021/10/20 12:32:26;;;;;;;3.60;2.97;;;;;;;;;;5102488;28;20039;-70
2021/10/20 12:34:57;;;;;;;3.67;3.30;;;;;;;;;;5101225;28;20031;-70
2021/10/20 12:37:31;;;;;;;3.67;3.22;;;;;;;;;;5103151;28;20035;-71
2021/10/20 12:39:57;;;;;;;4.88;3.90;;;;;;;;;;5089530;28;20126;-69
2021/10/20 12:42:24;;;;;;;4.25;3.55;;;;;;;;;;5102934;28;20060;-68
2021/10/20 12:44:57;;;;;;;4.38;3.67;;;;;;;;;;5103077;28;20442;-68
2021/10/20 12:47:28;;;;;;;4.03;3.00;;;;;;;;;;5100513;27;20027;-69
2021/10/20 12:49:53;;;;;;;3.10;2.60;;;;;;;;;;5100332;28;20024;-69
2021/10/20 12:52:19;;;;;;;3.78;3.25;;;;;;;;;;5099325;28;20468;-70
2021/10/20 12:54:51;;;;;;;4.93;3.13;;;;;;;;;;5100244;28;20042;-70
2021/10/20 12:57:17;;;;;;;3.33;2.90;;;;;;;;;;5103288;28;20031;-70
2021/10/20 12:59:42;;;;;;;2.90;2.50;;;;;;;;;;5100489;28;20181;-70
2021/10/20 13:02:09;;;;;;;3.67;3.10;;;;;;;;;;5084276;28;20036;-70
2021/10/20 13:04:34;;;;;;;3.25;2.67;;;;;;;;;;5103552;28;20043;-69
2021/10/20 13:07:00;;;;;;;3.90;3.10;;;;;;;;;;5104709;28;20035;-69
2021/10/20 13:09:28;;;;;;;4.13;3.08;;;;;;;;;;5105380;28;20031;-70
2021/10/20 13:11:54;;;;;;;3.45;3.08;;;;;;;;;;5090172;27;20041;-69
2021/10/20 13:14:19;;;;;;;3.20;2.80;;;;;;;;;;5107210;27;20035;-70
2021/10/20 13:16:45;;;;;;;3.33;2.80;;;;;;;;;;5108719;27;20043;-71
2021/10/20 13:19:13;;;;;;;3.47;3.17;;;;;;;;;;5099803;28;20040;-69
2021/10/20 13:21:39;;;;;;;5.10;4.28;;;;;;;;;;5105399;28;20456;-69
2021/10/20 13:24:04;;;;;;;3.80;3.20;;;;;;;;;;5099812;28;20032;-69
2021/10/20 13:26:30;;;;;;;3.75;3.38;;;;;;;;;;5100251;28;20107;-68
2021/10/20 13:28:55;;;;;;;3.60;3.30;;;;;;;;;;5102543;28;20718;-68
2021/10/20 13:31:20;;;;;;;4.00;3.47;;;;;;;;;;5097656;28;20466;-68
2021/10/20 13:33:47;;;;;;;3.83;3.35;;;;;;;;;;5099481;28;20036;-68
2021/10/20 13:36:14;;;;;;;3.92;3.47;;;;;;;;;;5099604;28;20040;-68
2021/10/20 13:38:41;;;;;;;4.15;3.75;;;;;;;;;;5096978;28;20042;-69
2021/10/20 13:41:07;;;;;;;3.38;3.08;;;;;;;;;;5100978;28;20125;-68
2021/10/20 13:43:33;;;;;;;3.65;3.33;;;;;;;;;;5103858;28;20472;-69
2021/10/20 13:45:59;;;;;;;3.38;3.08;;;;;;;;;;5102143;28;20054;-69
2021/10/20 13:48:25;;;;;;;4.13;3.25;;;;;;;;;;5102691;28;20031;-69
2021/10/20 13:50:50;;;;;;;3.83;3.35;;;;;;;;;;5103163;28;20027;-70
2021/10/20 13:53:16;;;;;;;3.88;3.28;;;;;;;;;;5101265;28;20071;-69
2021/10/20 13:55:41;;;;;;;4.35;3.45;;;;;;;;;;5104521;28;20063;-69
2021/10/20 13:58:08;;;;;;;4.03;3.60;;;;;;;;;;5103831;28;20031;-70
2021/10/20 14:00:34;;;;;;;3.65;3.25;;;;;;;;;;5101007;28;21744;-70
2021/10/20 14:02:59;;;;;;;4.07;3.67;;;;;;;;;;5105086;28;20105;-67
2021/10/20 14:05:25;;;;;;;6.47;3.60;;;;;;;;;;5102844;28;20035;-63
2021/10/20 14:07:51;;;;;;;3.97;3.58;;;;;;;;;;5104235;28;20031;-63
2021/10/20 14:10:17;;;;;;;3.20;2.83;;;;;;;;;;5102609;28;20134;-63
2021/10/20 14:12:42;;;;;;;5.05;3.63;;;;;;;;;;5101384;28;20118;-63
2021/10/20 14:15:09;;;;;;;3.40;3.10;;;;;;;;;;5106559;28;20024;-63
2021/10/20 14:17:35;;;;;;;4.07;3.67;;;;;;;;;;5105377;28;20047;-64
2021/10/20 14:20:06;;;;;;;4.03;3.35;;;;;;;;;;5107367;28;20159;-64
2021/10/20 14:22:31;;;;;;;3.53;3.03;;;;;;;;;;5108318;28;20121;-63
2021/10/20 14:24:57;;;;;;;3.95;3.55;;;;;;;;;;5104412;28;20125;-63
2021/10/20 14:27:24;;;;;;;3.42;3.13;;;;;;;;;;5106005;28;20473;-63
2021/10/20 14:29:50;;;;;;;4.13;3.72;;;;;;;;;;5107788;28;20050;-63
2021/10/20 14:32:15;;;;;;;3.90;3.50;;;;;;;;;;5105993;28;20742;-63
2021/10/20 14:34:41;;;;;;;3.75;3.42;;;;;;;;;;5104992;28;20035;-65
2021/10/20 14:37:06;;;;;;;4.35;3.95;;;;;;;;;;5109347;28;20045;-63
2021/10/20 14:39:32;;;;;;;4.10;3.70;;;;;;;;;;5107568;28;20070;-63
2021/10/20 14:41:58;;;;;;;7.97;3.83;;;;;;;;;;5104307;28;20434;-64
2021/10/20 14:44:23;;;;;;;4.10;3.63;;;;;;;;;;5106340;28;20529;-64
2021/10/20 14:46:49;;;;;;;3.80;3.50;;;;;;;;;;5107510;27;20039;-64